Time;durP1;ratioP1;P1;durP2;ratioP2;P2;SDS_P1;SDS_P2;PMS_P1;PMS_P2;Temp;Humidity;BMP_temperature;BMP_pressure;BME280_temperature;BME280_humidity;BME280_pressure;Samples;Min_cycle;Max_cycle;Signal;HPM_P1;HPM_P2
2022/07/22 00:02:04;;;;;;;24.48;17.73;;;;;;;-148.88;100.00;75391.31;5053534;28;20477;-77
2022/07/22 00:04:29;;;;;;;33.05;17.77;;;;;;;-148.88;100.00;75387.25;5052756;28;20028;-77
2022/07/22 00:06:55;;;;;;;27.52;18.52;;;;;;;-148.88;100.00;75397.41;5053348;28;20389;-77
2022/07/22 00:09:20;;;;;;;26.92;18.55;;;;;;;-148.88;100.00;75415.69;5035393;28;20115;-76
2022/07/22 00:11:45;;;;;;;28.80;20.02;;;;;;;-148.88;100.00;75423.81;5053328;28;20027;-77
2022/07/22 00:14:12;;;;;;;30.35;19.77;;;;;;;-148.88;100.00;75423.81;5053223;28;20036;-76
2022/07/22 00:16:38;;;;;;;28.58;19.50;;;;;;;-148.88;100.00;75415.69;5053494;28;20021;-77
2022/07/22 00:19:03;;;;;;;32.38;20.13;;;;;;;-148.88;100.00;75431.94;5053207;28;20036;-77
2022/07/22 00:21:28;;;;;;;22.35;17.23;;;;;;;-148.88;100.00;75450.22;5053496;28;20363;-76
2022/07/22 00:23:54;;;;;;;21.23;15.35;;;;;;;-148.88;100.00;75454.28;5053112;28;20477;-76
2022/07/22 00:26:19;;;;;;;19.92;14.90;;;;;;;-148.88;100.00;75452.25;5053076;28;20033;-77
2022/07/22 00:28:44;;;;;;;19.42;15.30;;;;;;;-148.88;100.00;75458.34;5052984;28;20489;-77
2022/07/22 00:31:10;;;;;;;23.60;15.00;;;;;;;-148.88;100.00;75468.50;5035273;28;20023;-76
2022/07/22 00:33:35;;;;;;;19.85;14.13;;;;;;;-148.88;100.00;75462.41;5053274;28;20021;-77
2022/07/22 00:36:00;;;;;;;17.42;12.43;;;;;;;-148.88;100.00;75480.69;5035185;28;20074;-76
2022/07/22 00:38:25;;;;;;;17.42;10.60;;;;;;;-148.88;100.00;75484.75;5035445;28;20112;-77
2022/07/22 00:40:51;;;;;;;15.45;11.65;;;;;;;-148.88;100.00;75484.75;5035441;28;20033;-76
2022/07/22 00:43:16;;;;;;;11.90;9.52;;;;;;;-148.88;100.00;75486.78;5053078;28;20032;-77
2022/07/22 00:45:41;;;;;;;13.30;9.93;;;;;;;-148.88;100.00;75494.91;5052937;28;20393;-76
2022/07/22 00:48:07;;;;;;;12.27;9.52;;;;;;;-148.88;100.00;75496.94;5052966;28;20076;-76
2022/07/22 00:50:32;;;;;;;11.48;8.82;;;;;;;-148.88;100.00;75492.88;5034931;28;20056;-77
2022/07/22 00:52:57;;;;;;;13.20;9.18;;;;;;;-148.88;100.00;75486.78;5052920;28;20029;-76
2022/07/22 00:55:23;;;;;;;11.77;8.85;;;;;;;-148.88;100.00;75492.88;5052885;28;20428;-76
2022/07/22 00:57:48;;;;;;;11.27;8.25;;;;;;;-148.88;100.00;75490.84;5053280;28;20104;-76
2022/07/22 01:00:20;;;;;;;10.07;6.63;;;;;;;-148.88;100.00;75507.09;5035212;28;20071;-76
2022/07/22 01:02:45;;;;;;;8.55;6.00;;;;;;;-148.88;100.00;75503.03;5053364;28;20107;-76
2022/07/22 01:05:11;;;;;;;8.43;6.07;;;;;;;-148.88;100.00;75488.81;5052738;28;20541;-77
2022/07/22 01:07:38;;;;;;;9.00;7.00;;;;;;;-148.88;100.00;75488.81;5053298;28;20025;-77
2022/07/22 01:10:04;;;;;;;11.48;7.85;;;;;;;-148.88;100.00;75503.03;5051387;28;20475;-76
2022/07/22 01:12:29;;;;;;;10.00;8.00;;;;;;;-148.88;100.00;75517.25;5052857;28;20020;-77
2022/07/22 01:14:54;;;;;;;12.60;8.98;;;;;;;-148.88;100.00;75513.19;5054790;28;20421;-76
2022/07/22 01:17:20;;;;;;;13.73;9.55;;;;;;;-148.88;100.00;75509.13;5056677;28;20047;-76
2022/07/22 01:19:45;;;;;;;22.55;15.70;;;;;;;-148.88;100.00;75529.44;5056382;28;20024;-76
2022/07/22 01:22:11;;;;;;;21.95;16.90;;;;;;;-148.88;100.00;75529.44;5056846;28;20108;-76
2022/07/22 01:24:36;;;;;;;23.83;17.75;;;;;;;-148.88;100.00;75523.34;5056587;28;20119;-77
2022/07/22 01:27:01;;;;;;;25.30;15.98;;;;;;;-148.88;100.00;75541.63;5038363;28;20108;-76
2022/07/22 01:29:27;;;;;;;22.05;14.68;;;;;;;-148.88;100.00;75541.63;5056178;28;20441;-77
2022/07/22 01:31:52;;;;;;;18.38;13.18;;;;;;;-148.88;100.00;75553.81;5056219;28;20131;-77
2022/07/22 01:34:18;;;;;;;16.58;12.50;;;;;;;-148.88;100.00;75553.81;5056079;28;20029;-77
2022/07/22 01:36:43;;;;;;;18.58;12.20;;;;;;;-148.88;100.00;75559.91;5038564;28;20067;-76
2022/07/22 01:39:08;;;;;;;17.20;11.52;;;;;;;-148.88;100.00;75553.81;5056138;28;20040;-77
2022/07/22 01:41:34;;;;;;;16.60;11.65;;;;;;;-148.88;100.00;75570.03;5056020;28;20092;-77
2022/07/22 01:44:00;;;;;;;16.65;11.30;;;;;;;-148.88;100.00;75570.03;5037959;28;20021;-77
2022/07/22 01:46:25;;;;;;;15.07;10.40;;;;;;;-148.88;100.00;75584.25;5055886;28;20025;-77
2022/07/22 01:48:52;;;;;;;12.88;8.43;;;;;;;-148.88;100.00;75592.38;5037852;28;20050;-77
2022/07/22 01:51:17;;;;;;;12.68;7.43;;;;;;;-148.88;100.00;75586.31;5037776;28;20025;-77
2022/07/22 01:53:43;;;;;;;10.90;7.03;;;;;;;-148.88;100.00;75594.44;5055721;28;20021;-77
2022/07/22 01:56:08;;;;;;;11.43;7.03;;;;;;;-148.88;100.00;75602.53;5055722;28;20371;-76
2022/07/22 01:58:34;;;;;;;11.85;7.45;;;;;;;-148.88;100.00;75612.69;5037839;28;20032;-76
2022/07/22 02:00:59;;;;;;;11.95;7.40;;;;;;;-148.88;100.00;75622.84;5037812;28;20394;-77
2022/07/22 02:03:24;;;;;;;13.55;7.57;;;;;;;-148.88;100.00;75624.88;5055509;28;20020;-77
2022/07/22 02:05:49;;;;;;;13.52;7.25;;;;;;;-148.88;100.00;75618.78;5055576;28;20025;-77
2022/07/22 02:08:15;;;;;;;11.13;7.38;;;;;;;-148.88;100.00;75624.88;5055525;28;20025;-76
2022/07/22 02:10:40;;;;;;;12.45;7.35;;;;;;;-148.88;100.00;75633.00;5055981;28;20021;-76
2022/07/22 02:13:05;;;;;;;15.75;7.32;;;;;;;-148.88;100.00;75639.09;5055330;28;20040;-76
2022/07/22 02:15:31;;;;;;;11.25;7.95;;;;;;;-148.88;100.00;75641.13;5054230;28;20056;-77
2022/07/22 02:17:57;;;;;;;11.48;7.35;;;;;;;-148.88;100.00;75641.13;5037448;28;20107;-77
2022/07/22 02:20:22;;;;;;;12.38;7.50;;;;;;;-148.88;100.00;75639.09;5055287;28;20033;-77
2022/07/22 02:22:47;;;;;;;11.43;7.15;;;;;;;-148.88;100.00;75649.25;5055163;28;20060;-77
2022/07/22 02:25:13;;;;;;;10.48;6.68;;;;;;;-148.88;100.00;75651.28;5056157;28;20029;-77
2022/07/22 02:27:40;;;;;;;9.95;5.40;;;;;;;-148.88;100.00;75665.50;5055532;28;20032;-78
2022/07/22 02:30:07;;;;;;;8.27;4.72;;;;;;;-148.88;100.00;75663.47;5038701;28;20025;-77
2022/07/22 02:32:32;;;;;;;10.45;5.15;;;;;;;-148.88;100.00;75667.53;5056518;28;20440;-78
2022/07/22 02:34:57;;;;;;;9.25;5.18;;;;;;;-148.88;100.00;75663.47;5037687;28;20024;-77
2022/07/22 02:37:23;;;;;;;10.88;4.75;;;;;;;-148.88;100.00;75669.56;5055613;28;20543;-77
2022/07/22 02:39:49;;;;;;;10.48;4.78;;;;;;;-148.88;100.00;75671.59;5055954;28;20172;-78
2022/07/22 02:42:14;;;;;;;8.50;5.07;;;;;;;-148.88;100.00;75675.66;5055205;28;20477;-78
2022/07/22 02:44:40;;;;;;;11.38;4.25;;;;;;;-148.88;100.00;75677.69;5055057;28;20020;-78
2022/07/22 02:47:05;;;;;;;6.85;4.10;;;;;;;-148.88;100.00;75685.81;5055526;28;20067;-77
2022/07/22 02:49:30;;;;;;;9.65;4.65;;;;;;;-148.88;100.00;75687.84;5037430;28;20043;-77
2022/07/22 02:51:56;;;;;;;8.98;4.35;;;;;;;-148.88;100.00;75685.81;5066186;22;20057;-88
2022/07/22 02:54:21;;;;;;;7.28;4.35;;;;;;;-148.88;100.00;75683.78;5053723;28;20155;-88
2022/07/22 02:56:47;;;;;;;8.23;4.40;;;;;;;-148.88;100.00;75691.91;5053692;28;20419;-88
2022/07/22 02:59:12;;;;;;;6.82;4.43;;;;;;;-148.88;100.00;75685.81;5054934;28;20013;-88
2022/07/22 03:01:38;;;;;;;7.85;4.20;;;;;;;-148.88;100.00;75671.59;5054017;28;20425;-89
2022/07/22 03:04:03;;;;;;;10.00;4.40;;;;;;;-148.88;100.00;75687.84;5053783;28;20127;-88
2022/07/22 03:06:29;;;;;;;10.00;4.35;;;;;;;-148.88;100.00;75695.97;5053804;28;20123;-87
2022/07/22 03:08:54;;;;;;;9.27;4.60;;;;;;;-148.88;100.00;75691.91;5053253;28;20024;-87
2022/07/22 03:11:22;;;;;;;6.47;4.43;;;;;;;-148.88;100.00;75704.09;5054598;28;20024;-87
2022/07/22 03:13:47;;;;;;;8.48;4.78;;;;;;;-148.88;100.00;75700.03;5054746;28;20021;-88
2022/07/22 03:16:12;;;;;;;10.23;5.28;;;;;;;-148.88;100.00;75693.94;5054781;28;20021;-88
2022/07/22 03:18:38;;;;;;;9.05;5.10;;;;;;;-148.88;100.00;75704.09;5053788;28;20368;-87
2022/07/22 03:21:03;;;;;;;9.68;4.97;;;;;;;-148.88;100.00;75704.09;5053476;28;20032;-88
2022/07/22 03:23:29;;;;;;;8.77;5.43;;;;;;;-148.88;100.00;75712.22;5054167;28;20031;-87
2022/07/22 03:25:56;;;;;;;9.93;5.68;;;;;;;-148.88;100.00;75712.22;5052939;28;20021;-88
2022/07/22 03:28:22;;;;;;;8.38;5.30;;;;;;;-148.88;100.00;75708.16;5054191;28;20108;-88
2022/07/22 03:30:50;;;;;;;10.20;5.28;;;;;;;-148.88;100.00;75700.03;5053628;28;20050;-89
2022/07/22 03:33:15;;;;;;;11.00;5.85;;;;;;;-148.88;100.00;75700.03;5053498;28;20074;-88
2022/07/22 03:35:41;;;;;;;10.30;5.60;;;;;;;-148.88;100.00;75702.06;5053528;28;20036;-88
2022/07/22 03:38:06;;;;;;;10.90;5.18;;;;;;;-148.88;100.00;75687.84;5052728;28;20090;-88
2022/07/22 03:40:31;;;;;;;10.93;5.10;;;;;;;-148.88;100.00;75695.97;5054129;28;20053;-90
2022/07/22 03:42:57;;;;;;;8.77;5.45;;;;;;;-148.88;100.00;75700.03;5052640;28;20441;-88
2022/07/22 03:45:22;;;;;;;8.98;5.43;;;;;;;-148.88;100.00;75706.13;5054877;28;20025;-88
2022/07/22 03:47:48;;;;;;;12.68;5.47;;;;;;;-148.88;100.00;75702.06;5057516;28;20090;-88
2022/07/22 03:50:13;;;;;;;11.13;5.15;;;;;;;-148.88;100.00;75706.13;5055085;28;20039;-90
2022/07/22 03:52:38;;;;;;;11.63;5.30;;;;;;;-148.88;100.00;75720.34;5054679;28;20020;-89
2022/07/22 03:55:04;;;;;;;11.13;5.82;;;;;;;-148.88;100.00;75708.16;5055596;28;20036;-89
2022/07/22 03:57:30;;;;;;;10.55;5.75;;;;;;;-148.88;100.00;75716.28;5053738;28;20020;-89
2022/07/22 03:59:55;;;;;;;12.57;5.78;;;;;;;-148.88;100.00;75716.28;5053081;28;20032;-88
2022/07/22 04:02:20;;;;;;;9.38;5.03;;;;;;;-148.88;100.00;75714.25;5054059;28;20025;-88
2022/07/22 04:04:46;;;;;;;9.15;5.07;;;;;;;-148.88;100.00;75714.25;5052725;28;20025;-88
2022/07/22 04:07:32;;;;;;;14.18;6.05;;;;;;;-148.88;100.00;75706.13;5052092;28;20043;-89
2022/07/22 04:10:06;;;;;;;8.90;4.80;;;;;;;-148.88;100.00;75720.34;5053950;28;20037;-89
2022/07/22 04:12:38;;;;;;;11.68;5.05;;;;;;;-148.88;100.00;75710.19;5052579;28;20027;-89
2022/07/22 04:15:06;;;;;;;11.20;4.90;;;;;;;-148.88;100.00;75724.41;5052363;28;20028;-88
2022/07/22 04:17:32;;;;;;;9.02;4.90;;;;;;;-148.88;100.00;75716.28;5052997;28;20021;-89
2022/07/22 04:19:59;;;;;;;10.73;4.93;;;;;;;-148.88;100.00;75720.34;5052438;28;20464;-90
2022/07/22 04:22:24;;;;;;;11.48;4.57;;;;;;;-148.88;100.00;75726.44;5052087;28;20047;-89
2022/07/22 04:24:49;;;;;;;9.23;4.60;;;;;;;-148.88;100.00;75722.38;5052221;28;20025;-89
2022/07/22 04:27:15;;;;;;;11.82;4.57;;;;;;;-148.88;100.00;75712.22;5052350;28;20032;-89
2022/07/22 04:29:40;;;;;;;7.28;4.68;;;;;;;-148.88;100.00;75708.16;5052311;28;20036;-90
2022/07/22 04:32:08;;;;;;;11.18;4.72;;;;;;;-148.88;100.00;75704.09;5053349;28;20025;-89
2022/07/22 04:34:33;;;;;;;7.82;4.50;;;;;;;-148.88;100.00;75712.22;5053648;28;20025;-90
2022/07/22 04:36:59;;;;;;;8.98;5.18;;;;;;;-148.88;100.00;75708.16;5052648;28;20083;-89
2022/07/22 04:39:24;;;;;;;10.02;4.78;;;;;;;-148.88;100.00;75704.09;5054180;28;20029;-89
2022/07/22 04:41:54;;;;;;;12.27;5.32;;;;;;;-148.88;100.00;75706.13;5053666;28;20364;-89
2022/07/22 04:44:19;;;;;;;12.93;5.80;;;;;;;-148.88;100.00;75706.13;5057409;28;20025;-87
2022/07/22 04:46:48;;;;;;;10.05;5.75;;;;;;;-148.88;100.00;75708.16;5052153;28;20179;-88
2022/07/22 04:49:13;;;;;;;10.18;5.97;;;;;;;-148.88;100.00;75700.03;5065145;28;20021;-89
2022/07/22 04:51:42;;;;;;;9.27;5.35;;;;;;;-148.88;100.00;75698.00;5058436;28;20408;-88
2022/07/22 04:54:07;;;;;;;12.70;6.43;;;;;;;-148.88;100.00;75700.03;5056371;28;20121;-88
2022/07/22 04:56:32;;;;;;;9.90;5.57;;;;;;;-148.88;100.00;75704.09;5057659;28;20049;-88
2022/07/22 04:58:58;;;;;;;8.18;5.35;;;;;;;-148.88;100.00;75716.28;5056853;28;20024;-88
2022/07/22 05:01:24;;;;;;;8.73;4.90;;;;;;;-148.88;100.00;75712.22;5057703;28;20494;-88
2022/07/22 05:03:50;;;;;;;7.28;5.20;;;;;;;-148.88;100.00;75718.31;5056328;28;20036;-88
2022/07/22 05:06:16;;;;;;;10.02;4.90;;;;;;;-148.88;100.00;75718.31;5055302;28;20040;-87
2022/07/22 05:08:43;;;;;;;6.82;4.80;;;;;;;-148.88;100.00;75720.34;5055631;28;20402;-88
2022/07/22 05:11:09;;;;;;;11.57;5.63;;;;;;;-148.88;100.00;75730.50;5055460;28;20063;-89
2022/07/22 05:13:37;;;;;;;10.57;5.65;;;;;;;-148.88;100.00;75716.28;5056140;28;20028;-88
2022/07/22 05:16:09;;;;;;;10.48;4.90;;;;;;;-148.88;100.00;75718.31;5056077;28;20120;-87
2022/07/22 05:18:37;;;;;;;10.38;5.70;;;;;;;-148.88;100.00;75722.38;5056501;28;20538;-87
2022/07/22 05:21:04;;;;;;;11.85;5.78;;;;;;;-148.88;100.00;75728.47;5055713;28;20115;-86
2022/07/22 05:23:29;;;;;;;9.27;5.68;;;;;;;-148.88;100.00;75718.31;5056000;28;20029;-88
2022/07/22 05:25:55;;;;;;;10.10;6.07;;;;;;;-148.88;100.00;75720.34;5055395;28;20093;-88
2022/07/22 05:28:24;;;;;;;10.70;5.60;;;;;;;-148.88;100.00;75714.25;5056887;28;20036;-88
2022/07/22 05:30:49;;;;;;;10.20;6.22;;;;;;;-148.88;100.00;75716.28;5055215;28;20017;-88
2022/07/22 05:33:17;;;;;;;10.90;6.05;;;;;;;-148.88;100.00;75722.38;5056428;28;20078;-87
2022/07/22 05:35:46;;;;;;;13.20;6.00;;;;;;;-148.88;100.00;75720.34;5055971;28;20025;-87
2022/07/22 05:38:11;;;;;;;9.38;5.65;;;;;;;-148.88;100.00;75728.47;5055670;28;20075;-88
2022/07/22 05:40:37;;;;;;;9.15;5.53;;;;;;;-148.88;100.00;75724.41;5056189;28;20091;-88
2022/07/22 05:43:02;;;;;;;14.13;6.10;;;;;;;-148.88;100.00;75728.47;5056216;28;20039;-88
2022/07/22 05:45:27;;;;;;;12.18;5.63;;;;;;;-148.88;100.00;75722.38;5056469;28;20032;-88
2022/07/22 05:47:52;;;;;;;9.50;5.47;;;;;;;-148.88;100.00;75712.22;5056274;28;20127;-88
2022/07/22 05:50:18;;;;;;;8.93;5.55;;;;;;;-148.88;100.00;75728.47;5055934;28;20108;-87
2022/07/22 05:52:43;;;;;;;8.98;5.63;;;;;;;-148.88;100.00;75716.28;5056726;28;20037;-87
2022/07/22 05:55:09;;;;;;;11.38;5.47;;;;;;;-148.88;100.00;75712.22;5055950;28;20021;-89
2022/07/22 05:57:38;;;;;;;8.20;5.10;;;;;;;-148.88;100.00;75720.34;5055194;28;20040;-88
2022/07/22 06:00:07;;;;;;;9.48;4.90;;;;;;;-148.88;100.00;75702.06;5054532;28;20545;-88
2022/07/22 06:02:33;;;;;;;8.40;5.40;;;;;;;-148.88;100.00;75704.09;5053641;28;20025;-87
2022/07/22 06:05:02;;;;;;;9.48;5.30;;;;;;;-148.88;100.00;75691.91;5054487;28;20024;-88
2022/07/22 06:07:29;;;;;;;8.88;4.93;;;;;;;-148.88;100.00;75695.97;5055929;28;20388;-88
2022/07/22 06:09:55;;;;;;;11.15;5.40;;;;;;;-148.88;100.00;75698.00;5055151;28;20017;-87
2022/07/22 06:12:20;;;;;;;13.30;5.82;;;;;;;-148.88;100.00;75714.25;5054358;28;20070;-88
2022/07/22 06:14:49;;;;;;;13.50;5.40;;;;;;;-148.88;100.00;75777.22;5054656;28;20024;-89
2022/07/22 06:17:14;;;;;;;13.13;5.20;;;;;;;-148.88;100.00;75791.44;5054651;28;20044;-88
2022/07/22 06:19:40;;;;;;;19.70;6.40;;;;;;;-148.88;100.00;75801.59;5054552;28;20439;-89
2022/07/22 06:22:05;;;;;;;15.77;5.90;;;;;;;-148.88;100.00;75809.72;5054281;28;20082;-88
2022/07/22 06:24:36;;;;;;;10.80;5.75;;;;;;;-148.88;100.00;75813.78;5054398;28;20064;-88
2022/07/22 06:27:02;;;;;;;15.38;5.88;;;;;;;-148.88;100.00;75828.00;5055554;28;20025;-87
2022/07/22 06:29:30;;;;;;;13.50;6.47;;;;;;;-148.88;100.00;75828.00;5054332;28;20136;-87
2022/07/22 06:31:58;;;;;;;11.85;5.80;;;;;;;-148.88;100.00;75825.97;5053833;28;20123;-88
2022/07/22 06:34:24;;;;;;;15.82;5.80;;;;;;;-148.88;100.00;75838.16;5055172;28;20453;-87
2022/07/22 06:36:52;;;;;;;13.77;5.15;;;;;;;-148.88;100.00;75842.22;5054223;28;20028;-87
2022/07/22 06:39:17;;;;;;;12.35;5.82;;;;;;;-148.88;100.00;75838.16;5055938;28;20017;-87
2022/07/22 06:41:48;;;;;;;12.55;5.22;;;;;;;-148.88;100.00;75854.41;5054772;28;20524;-88
2022/07/22 06:44:15;;;;;;;14.75;5.43;;;;;;;-148.88;100.00;75830.03;5053747;28;20550;-88
2022/07/22 06:46:41;;;;;;;15.23;5.68;;;;;;;-148.88;100.00;75844.25;5054401;28;20394;-89
2022/07/22 06:49:07;;;;;;;18.33;6.40;;;;;;;-148.88;100.00;75840.19;5053650;28;20028;-88
2022/07/22 06:51:41;;;;;;;22.23;6.00;;;;;;;-148.88;100.00;75825.97;5053953;28;20040;-88
2022/07/22 06:54:10;;;;;;;12.88;4.90;;;;;;;-148.88;100.00;75823.94;5053625;28;20394;-87
2022/07/22 06:56:35;;;;;;;14.75;5.68;;;;;;;-148.88;100.00;75821.91;5054904;28;20025;-88
2022/07/22 06:59:00;;;;;;;14.90;6.35;;;;;;;-148.88;100.00;75809.72;5054107;28;20463;-89
2022/07/22 07:01:25;;;;;;;12.13;6.57;;;;;;;-148.88;100.00;75789.41;5055368;28;20028;-88
2022/07/22 07:03:51;;;;;;;14.38;6.90;;;;;;;-148.88;100.00;75791.44;5053937;28;20036;-88
2022/07/22 07:06:17;;;;;;;14.60;6.07;;;;;;;-148.88;100.00;75769.09;5053718;28;20487;-88
2022/07/22 07:08:47;;;;;;;15.05;5.85;;;;;;;-148.88;100.00;75760.97;5054126;28;20495;-87
2022/07/22 07:11:13;;;;;;;15.43;6.10;;;;;;;-148.88;100.00;75746.75;5054978;28;20033;-87
2022/07/22 07:13:39;;;;;;;18.70;5.53;;;;;;;-148.88;100.00;75740.66;5053022;28;20025;-87
2022/07/22 07:16:06;;;;;;;11.70;5.03;;;;;;;-148.88;100.00;75742.69;5053848;28;20036;-87
2022/07/22 07:18:32;;;;;;;11.73;5.88;;;;;;;-148.88;100.00;75756.91;5053443;28;20032;-87
2022/07/22 07:21:00;;;;;;;14.32;6.00;;;;;;;-148.88;100.00;75732.53;5053394;28;20012;-88
2022/07/22 07:23:25;;;;;;;13.95;5.80;;;;;;;-148.88;100.00;75720.34;5054851;28;20020;-87
2022/07/22 07:25:51;;;;;;;13.65;5.68;;;;;;;-148.88;100.00;75714.25;5053183;28;20044;-88
2022/07/22 07:28:19;;;;;;;16.42;6.30;;;;;;;-148.88;100.00;75700.03;5054024;28;20040;-88
2022/07/22 07:30:45;;;;;;;11.02;4.95;;;;;;;-148.88;100.00;75704.09;5054467;28;20017;-87
2022/07/22 07:33:12;;;;;;;9.45;4.40;;;;;;;-148.88;100.00;75693.94;5053273;28;20031;-87
2022/07/22 07:35:38;;;;;;;8.35;4.50;;;;;;;-148.88;100.00;75700.03;5053185;28;20385;-87
2022/07/22 07:38:04;;;;;;;8.43;4.47;;;;;;;-148.88;100.00;75716.28;5053990;28;20590;-87
2022/07/22 07:40:29;;;;;;;14.60;4.88;;;;;;;-148.88;100.00;75700.03;5052536;28;20107;-87
2022/07/22 07:42:54;;;;;;;10.98;5.18;;;;;;;-148.88;100.00;75687.84;5054429;28;20028;-87
2022/07/22 07:45:20;;;;;;;9.30;4.70;;;;;;;-148.88;100.00;75675.66;5052748;28;20029;-86
2022/07/22 07:47:57;;;;;;;13.85;5.32;;;;;;;-148.88;100.00;75673.63;5054016;28;20057;-87
2022/07/22 07:50:22;;;;;;;10.05;4.15;;;;;;;-148.88;99.55;75651.28;5052318;28;20058;-88
2022/07/22 07:52:49;;;;;;;9.18;4.60;;;;;;;-148.88;98.43;75643.16;5053529;28;20056;-88
2022/07/22 07:55:15;;;;;;;12.35;4.93;;;;;;;-148.88;98.26;75618.78;5052671;28;20025;-87
2022/07/22 07:57:46;;;;;;;8.00;3.53;;;;;;;-148.88;95.81;75602.53;5052471;28;20078;-87
2022/07/22 08:00:12;;;;;;;9.65;4.68;;;;;;;-148.88;94.48;75590.34;5052295;28;20052;-86
2022/07/22 08:02:38;;;;;;;7.43;3.47;;;;;;;-148.88;93.90;75584.25;5052099;28;20052;-88
2022/07/22 08:05:08;;;;;;;9.98;3.75;;;;;;;-148.88;93.64;75586.31;5053847;28;20021;-88
2022/07/22 08:07:39;;;;;;;5.35;3.03;;;;;;;-148.88;93.22;75566.00;5054055;28;20445;-88
2022/07/22 08:10:08;;;;;;;11.60;3.55;;;;;;;-148.88;92.20;75590.34;5052863;28;20068;-88
2022/07/22 08:12:36;;;;;;;9.07;3.65;;;;;;;-148.88;92.10;75596.44;5051912;28;20082;-86
2022/07/22 08:15:12;;;;;;;8.18;3.83;;;;;;;-148.88;91.07;75602.53;5052322;28;20107;-88
2022/07/22 08:17:37;;;;;;;7.25;3.63;;;;;;;-148.88;93.26;75606.59;5053967;28;20029;-88
2022/07/22 08:20:13;;;;;;;8.32;3.85;;;;;;;-148.88;91.73;75602.53;5052336;28;20029;-89
2022/07/22 08:22:38;;;;;;;10.90;3.55;;;;;;;-148.88;92.08;75594.44;5052694;28;20028;-88
2022/07/22 08:25:08;;;;;;;7.40;2.78;;;;;;;-148.88;90.58;75578.19;5051416;28;20494;-87
2022/07/22 08:27:42;;;;;;;8.68;3.00;;;;;;;-148.88;90.12;75570.03;5051694;28;20048;-87
2022/07/22 08:30:08;;;;;;;8.65;2.72;;;;;;;-148.88;89.42;75563.97;5052535;28;20079;-88
2022/07/22 08:32:36;;;;;;;8.93;2.65;;;;;;;-148.88;90.38;75545.69;5052749;28;20036;-88
2022/07/22 08:35:03;;;;;;;10.45;3.20;;;;;;;-148.88;89.29;75563.97;5053228;28;20029;-87
2022/07/22 08:37:29;;;;;;;9.23;3.03;;;;;;;-148.88;90.08;75555.84;5051943;28;20112;-88
2022/07/22 08:40:00;;;;;;;5.38;2.88;;;;;;;-148.88;88.58;75545.69;5052125;28;20072;-86
2022/07/22 08:42:26;;;;;;;8.73;3.22;;;;;;;-148.88;87.23;75563.97;5051794;28;20075;-86
2022/07/22 08:45:15;;;;;;;7.97;2.90;;;;;;;-148.88;87.84;75547.72;5053069;28;20028;-88
2022/07/22 08:47:50;;;;;;;5.50;2.72;;;;;;;-148.88;88.09;75541.63;5053410;28;20025;-88
2022/07/22 08:50:16;;;;;;;9.00;3.63;;;;;;;-148.88;89.06;75529.44;5052493;28;20033;-88
2022/07/22 08:52:42;;;;;;;6.82;2.88;;;;;;;-148.88;88.91;75515.22;5052103;28;20502;-88
2022/07/22 08:55:08;;;;;;;6.43;2.65;;;;;;;-148.88;87.56;75513.19;5051628;28;20095;-88
2022/07/22 08:57:37;;;;;;;7.32;2.95;;;;;;;-148.88;87.09;75525.38;5052715;28;20115;-88
2022/07/22 09:00:16;;;;;;;6.50;3.38;;;;;;;-148.88;88.76;75509.13;5052425;28;20066;-88
2022/07/22 09:02:42;;;;;;;7.18;3.50;;;;;;;-148.88;86.80;75507.09;5051816;28;20025;-88
2022/07/22 09:05:16;;;;;;;6.55;3.70;;;;;;;-148.88;86.11;75523.34;5051387;28;20067;-87
2022/07/22 09:07:43;;;;;;;7.93;3.53;;;;;;;-148.88;87.77;75509.13;5051860;28;20172;-87
2022/07/22 09:10:15;;;;;;;10.23;3.45;;;;;;;-148.88;87.40;75541.63;5051740;28;20021;-88
2022/07/22 09:13:01;;;;;;;7.32;3.60;;;;;;;-148.88;86.89;75545.69;5052984;28;20379;-87
2022/07/22 09:15:37;;;;;;;7.53;3.67;;;;;;;-148.88;86.57;75555.84;5052434;28;20104;-88
2022/07/22 09:18:07;;;;;;;7.03;3.17;;;;;;;-148.88;84.90;75545.69;5052138;28;20433;-87
2022/07/22 09:20:37;;;;;;;7.07;3.47;;;;;;;-148.88;85.96;75545.69;5052038;28;20448;-87
2022/07/22 09:23:10;;;;;;;4.75;3.40;;;;;;;-148.88;86.16;75527.41;5051685;28;20047;-88
2022/07/22 09:25:37;;;;;;;7.80;3.70;;;;;;;-148.88;85.20;75521.31;5052361;28;20032;-88
2022/07/22 09:28:05;;;;;;;6.53;3.70;;;;;;;-148.88;85.40;75525.38;5051438;28;20036;-87
2022/07/22 09:30:33;;;;;;;7.43;3.83;;;;;;;-148.88;84.70;75555.84;5051225;28;20025;-88
2022/07/22 09:33:18;;;;;;;5.97;3.83;;;;;;;-148.88;84.98;75535.53;5051221;28;20071;-87
2022/07/22 09:35:50;;;;;;;6.82;3.65;;;;;;;-148.88;85.54;75517.25;5052646;28;20043;-87
2022/07/22 09:38:19;;;;;;;8.07;4.25;;;;;;;-148.88;84.51;75531.47;5055784;28;20024;-88
2022/07/22 09:40:53;;;;;;;7.80;3.90;;;;;;;-148.88;84.87;75521.31;5054638;28;20109;-87
2022/07/22 09:43:21;;;;;;;7.10;3.92;;;;;;;-148.88;85.36;75505.06;5055209;28;20043;-87
2022/07/22 09:48:44;;;;;;;7.63;4.20;;;;;;;-148.88;85.78;75494.91;5055563;28;20063;-88
2022/07/22 09:51:09;;;;;;;9.23;4.32;;;;;;;-148.88;83.48;75511.16;5055461;28;20029;-87
2022/07/22 09:53:38;;;;;;;9.10;4.03;;;;;;;-148.88;82.01;75507.09;5057157;28;20124;-87
2022/07/22 09:56:15;;;;;;;6.82;3.78;;;;;;;-148.88;81.86;75513.19;5055042;28;20043;-88
2022/07/22 09:58:43;;;;;;;7.93;4.18;;;;;;;-148.88;81.12;75529.44;5056220;28;20491;-88
2022/07/22 10:01:10;;;;;;;11.55;3.92;;;;;;;-148.88;80.84;75509.13;5055183;28;20044;-88
2022/07/22 10:03:36;;;;;;;11.77;4.10;;;;;;;-148.88;82.47;75501.00;5054618;28;20123;-87
2022/07/22 10:06:03;;;;;;;9.18;4.40;;;;;;;-148.88;81.98;75496.94;5054715;28;20029;-88
2022/07/22 10:08:33;;;;;;;8.48;4.60;;;;;;;-148.88;81.32;75501.00;5055874;28;20478;-87
2022/07/22 10:11:05;;;;;;;8.35;4.72;;;;;;;-148.88;79.20;75488.81;5054700;28;20475;-87
2022/07/22 10:13:31;;;;;;;8.77;4.68;;;;;;;-148.88;79.56;75476.63;5054426;28;20032;-87
2022/07/22 10:16:03;;;;;;;9.77;5.25;;;;;;;-148.88;80.20;75466.47;5055047;28;20116;-89
2022/07/22 10:18:30;;;;;;;6.53;5.18;;;;;;;-148.88;80.80;75480.69;5056885;28;20184;-87
2022/07/22 10:21:09;;;;;;;8.90;4.80;;;;;;;-148.88;80.62;75478.66;5056535;28;20028;-87
2022/07/22 10:23:36;;;;;;;9.25;4.72;;;;;;;-148.88;79.81;75468.50;5054651;28;20029;-86
2022/07/22 10:26:09;;;;;;;11.35;4.95;;;;;;;-148.88;79.73;75460.38;5055328;28;20036;-87
2022/07/22 10:28:39;;;;;;;9.90;5.38;;;;;;;-148.88;78.30;75452.25;5053895;28;20174;-87
2022/07/22 10:31:36;;;;;;;8.00;4.90;;;;;;;-148.88;79.49;75436.00;5054727;28;20114;-87
2022/07/22 10:34:02;;;;;;;7.90;4.45;;;;;;;-148.88;77.88;75444.13;5052934;28;20479;-87
2022/07/22 10:36:35;;;;;;;7.60;4.38;;;;;;;-148.88;78.19;75456.31;5054212;28;20033;-87
2022/07/22 10:39:05;;;;;;;7.55;4.18;;;;;;;-148.88;77.82;75466.47;5054706;28;20071;-88
2022/07/22 10:41:39;;;;;;;6.07;4.20;;;;;;;-148.88;78.60;75476.63;5053733;28;20029;-87
2022/07/22 10:44:08;;;;;;;8.65;4.63;;;;;;;-148.88;80.00;75484.75;5053862;28;20021;-88
2022/07/22 10:46:58;;;;;;;7.63;4.93;;;;;;;-148.88;79.71;75505.06;5053813;28;20032;-86
2022/07/22 10:49:27;;;;;;;9.00;4.82;;;;;;;-148.88;80.50;75482.72;5054501;28;20115;-87
2022/07/22 10:52:16;;;;;;;7.78;4.68;;;;;;;-148.88;80.08;75486.78;5053724;28;20028;-87
2022/07/22 10:55:17;;;;;;;7.82;4.40;;;;;;;-148.88;81.06;75476.63;5053145;28;20479;-86
2022/07/22 10:57:49;;;;;;;7.75;4.53;;;;;;;-148.88;78.35;75458.34;5053701;28;20063;-87
2022/07/22 11:00:15;;;;;;;7.60;4.60;;;;;;;-148.88;79.21;75456.31;5053389;28;20028;-88
2022/07/22 11:02:40;;;;;;;10.50;4.78;;;;;;;-148.88;78.81;75444.13;5053713;28;20037;-87
2022/07/22 11:05:07;;;;;;;10.40;5.18;;;;;;;-148.88;79.02;75458.34;5053157;28;20035;-86
2022/07/22 11:07:34;;;;;;;6.68;4.60;;;;;;;-148.88;79.55;75468.50;5053347;28;20021;-87
2022/07/22 11:10:14;;;;;;;9.27;4.82;;;;;;;-148.88;79.70;75460.38;5052693;28;20041;-88
2022/07/22 11:12:40;;;;;;;8.40;4.90;;;;;;;-148.88;79.95;75438.03;5053292;28;20119;-88